sensor_id;sensor_type;location;lat;lon;timestamp;temperature;humidity
17891;DHT22;9071;48.220;14.480;2022-07-23T00:02:37;23.20;99.90
17891;DHT22;9071;48.220;14.480;2022-07-23T00:07:41;23.40;99.90
17891;DHT22;9071;48.220;14.480;2022-07-23T00:12:43;23.50;99.90
17891;DHT22;9071;48.220;14.480;2022-07-23T00:17:45;23.50;99.90
17891;DHT22;9071;48.220;14.480;2022-07-23T00:22:49;23.70;99.90
17891;DHT22;9071;48.220;14.480;2022-07-23T00:27:52;23.60;99.90
17891;DHT22;9071;48.220;14.480;2022-07-23T00:32:56;23.50;99.90
17891;DHT22;9071;48.220;14.480;2022-07-23T00:38:00;23.40;99.90
17891;DHT22;9071;48.220;14.480;2022-07-23T00:43:03;23.10;99.90
17891;DHT22;9071;48.220;14.480;2022-07-23T00:48:05;23.10;99.90
17891;DHT22;9071;48.220;14.480;2022-07-23T00:53:09;23.10;99.90
17891;DHT22;9071;48.220;14.480;2022-07-23T00:58:14;23.10;99.90
17891;DHT22;9071;48.220;14.480;2022-07-23T01:03:17;23.00;99.90
17891;DHT22;9071;48.220;14.480;2022-07-23T01:08:21;23.00;99.90
17891;DHT22;9071;48.220;14.480;2022-07-23T01:13:23;23.00;99.90
17891;DHT22;9071;48.220;14.480;2022-07-23T01:18:25;22.90;99.90
17891;DHT22;9071;48.220;14.480;2022-07-23T01:23:28;22.80;99.90
17891;DHT22;9071;48.220;14.480;2022-07-23T01:28:30;22.70;99.90
17891;DHT22;9071;48.220;14.480;2022-07-23T01:33:33;22.60;99.90
17891;DHT22;9071;48.220;14.480;2022-07-23T01:38:36;22.50;99.90
17891;DHT22;9071;48.220;14.480;2022-07-23T01:43:38;22.50;99.90
17891;DHT22;9071;48.220;14.480;2022-07-23T01:48:41;22.40;99.90
17891;DHT22;9071;48.220;14.480;2022-07-23T01:53:44;22.50;99.90
17891;DHT22;9071;48.220;14.480;2022-07-23T01:58:46;22.40;99.90
17891;DHT22;9071;48.220;14.480;2022-07-23T02:03:49;22.40;99.90
17891;DHT22;9071;48.220;14.480;2022-07-23T02:08:52;22.40;99.90
17891;DHT22;9071;48.220;14.480;2022-07-23T02:13:55;22.40;99.90
17891;DHT22;9071;48.220;14.480;2022-07-23T02:18:57;22.30;99.90
17891;DHT22;9071;48.220;14.480;2022-07-23T02:24:00;22.40;99.90
17891;DHT22;9071;48.220;14.480;2022-07-23T02:29:03;22.40;99.90
17891;DHT22;9071;48.220;14.480;2022-07-23T02:34:05;22.30;99.90
17891;DHT22;9071;48.220;14.480;2022-07-23T02:39:09;22.20;99.90
17891;DHT22;9071;48.220;14.480;2022-07-23T02:44:11;22.10;99.90
17891;DHT22;9071;48.220;14.480;2022-07-23T02:49:13;21.90;99.90
17891;DHT22;9071;48.220;14.480;2022-07-23T02:54:16;21.80;99.90
17891;DHT22;9071;48.220;14.480;2022-07-23T02:59:18;21.70;99.90
17891;DHT22;9071;48.220;14.480;2022-07-23T03:04:20;21.70;99.90
17891;DHT22;9071;48.220;14.480;2022-07-23T03:09:24;21.60;99.90
17891;DHT22;9071;48.220;14.480;2022-07-23T03:14:26;21.50;99.90
17891;DHT22;9071;48.220;14.480;2022-07-23T03:19:28;21.40;99.90
17891;DHT22;9071;48.220;14.480;2022-07-23T03:24:32;21.40;99.90
17891;DHT22;9071;48.220;14.480;2022-07-23T03:29:49;21.30;99.90
17891;DHT22;9071;48.220;14.480;2022-07-23T03:34:51;21.20;99.90
17891;DHT22;9071;48.220;14.480;2022-07-23T03:39:55;21.20;99.90
17891;DHT22;9071;48.220;14.480;2022-07-23T03:44:57;21.40;99.90
17891;DHT22;9071;48.220;14.480;2022-07-23T03:49:59;21.40;99.90
17891;DHT22;9071;48.220;14.480;2022-07-23T03:55:04;21.40;99.90
17891;DHT22;9071;48.220;14.480;2022-07-23T04:00:07;21.50;99.90
17891;DHT22;9071;48.220;14.480;2022-07-23T04:05:10;21.50;99.90
17891;DHT22;9071;48.220;14.480;2022-07-23T04:10:13;21.40;99.90
17891;DHT22;9071;48.220;14.480;2022-07-23T04:15:15;21.50;99.90
17891;DHT22;9071;48.220;14.480;2022-07-23T04:20:17;21.60;99.90
17891;DHT22;9071;48.220;14.480;2022-07-23T04:25:21;21.70;99.90
17891;DHT22;9071;48.220;14.480;2022-07-23T04:30:23;21.70;99.90
17891;DHT22;9071;48.220;14.480;2022-07-23T04:35:25;21.80;99.90
17891;DHT22;9071;48.220;14.480;2022-07-23T04:40:29;21.90;99.90
17891;DHT22;9071;48.220;14.480;2022-07-23T04:45:31;22.20;99.90
17891;DHT22;9071;48.220;14.480;2022-07-23T04:50:33;22.40;99.90
17891;DHT22;9071;48.220;14.480;2022-07-23T04:55:37;22.50;99.90
17891;DHT22;9071;48.220;14.480;2022-07-23T05:00:39;22.70;99.90
17891;DHT22;9071;48.220;14.480;2022-07-23T05:05:41;22.90;99.90
17891;DHT22;9071;48.220;14.480;2022-07-23T05:10:45;23.10;99.90
17891;DHT22;9071;48.220;14.480;2022-07-23T05:15:47;23.30;99.90
17891;DHT22;9071;48.220;14.480;2022-07-23T05:20:50;23.60;99.90
17891;DHT22;9071;48.220;14.480;2022-07-23T05:25:53;23.90;99.90
17891;DHT22;9071;48.220;14.480;2022-07-23T05:30:55;24.20;99.90
17891;DHT22;9071;48.220;14.480;2022-07-23T05:36:00;24.90;99.90
17891;DHT22;9071;48.220;14.480;2022-07-23T05:41:04;26.10;99.90
17891;DHT22;9071;48.220;14.480;2022-07-23T05:46:07;26.60;99.90
17891;DHT22;9071;48.220;14.480;2022-07-23T05:51:09;26.80;99.90
17891;DHT22;9071;48.220;14.480;2022-07-23T05:56:12;28.10;99.90
17891;DHT22;9071;48.220;14.480;2022-07-23T06:01:14;29.00;99.90
17891;DHT22;9071;48.220;14.480;2022-07-23T06:06:16;29.60;99.90
17891;DHT22;9071;48.220;14.480;2022-07-23T06:11:19;29.40;99.90
17891;DHT22;9071;48.220;14.480;2022-07-23T06:16:21;29.80;99.90
17891;DHT22;9071;48.220;14.480;2022-07-23T06:21:24;29.50;99.90
17891;DHT22;9071;48.220;14.480;2022-07-23T06:26:27;29.20;99.90
17891;DHT22;9071;48.220;14.480;2022-07-23T06:31:29;29.30;99.90
17891;DHT22;9071;48.220;14.480;2022-07-23T06:36:31;30.10;99.90
17891;DHT22;9071;48.220;14.480;2022-07-23T06:41:35;31.50;99.90
17891;DHT22;9071;48.220;14.480;2022-07-23T06:46:37;32.90;99.90
17891;DHT22;9071;48.220;14.480;2022-07-23T06:51:39;33.40;99.90
17891;DHT22;9071;48.220;14.480;2022-07-23T06:56:43;33.90;99.90
17891;DHT22;9071;48.220;14.480;2022-07-23T07:01:45;33.80;99.90
17891;DHT22;9071;48.220;14.480;2022-07-23T07:06:47;33.50;99.90
17891;DHT22;9071;48.220;14.480;2022-07-23T07:11:50;34.20;99.90
17891;DHT22;9071;48.220;14.480;2022-07-23T07:16:52;34.80;99.90
17891;DHT22;9071;48.220;14.480;2022-07-23T07:21:54;35.70;99.90
17891;DHT22;9071;48.220;14.480;2022-07-23T07:26:58;36.20;99.90
17891;DHT22;9071;48.220;14.480;2022-07-23T07:32:00;36.00;99.90
17891;DHT22;9071;48.220;14.480;2022-07-23T07:37:02;36.60;99.90
17891;DHT22;9071;48.220;14.480;2022-07-23T07:42:06;36.70;99.90
17891;DHT22;9071;48.220;14.480;2022-07-23T07:47:08;35.50;99.90
17891;DHT22;9071;48.220;14.480;2022-07-23T07:52:10;33.20;99.90
17891;DHT22;9071;48.220;14.480;2022-07-23T07:57:13;32.30;99.90
17891;DHT22;9071;48.220;14.480;2022-07-23T08:02:16;31.50;99.90
17891;DHT22;9071;48.220;14.480;2022-07-23T08:07:18;30.90;99.90
17891;DHT22;9071;48.220;14.480;2022-07-23T08:12:21;30.30;99.90
17891;DHT22;9071;48.220;14.480;2022-07-23T08:17:23;29.70;99.90
17891;DHT22;9071;48.220;14.480;2022-07-23T08:22:26;29.40;99.90
17891;DHT22;9071;48.220;14.480;2022-07-23T08:27:44;28.50;99.90
17891;DHT22;9071;48.220;14.480;2022-07-23T08:32:50;27.80;99.90
17891;DHT22;9071;48.220;14.480;2022-07-23T08:37:53;27.50;99.90
17891;DHT22;9071;48.220;14.480;2022-07-23T08:42:57;27.40;99.90
17891;DHT22;9071;48.220;14.480;2022-07-23T08:47:59;27.60;99.90
17891;DHT22;9071;48.220;14.480;2022-07-23T08:53:02;27.50;99.90
17891;DHT22;9071;48.220;14.480;2022-07-23T08:58:06;27.50;99.90
17891;DHT22;9071;48.220;14.480;2022-07-23T09:03:14;27.40;99.90
17891;DHT22;9071;48.220;14.480;2022-07-23T09:08:18;27.40;99.90
17891;DHT22;9071;48.220;14.480;2022-07-23T09:13:34;27.50;99.90
17891;DHT22;9071;48.220;14.480;2022-07-23T09:18:40;27.70;99.90
17891;DHT22;9071;48.220;14.480;2022-07-23T09:23:46;27.90;99.90
17891;DHT22;9071;48.220;14.480;2022-07-23T09:28:56;27.90;99.90
17891;DHT22;9071;48.220;14.480;2022-07-23T09:34:07;28.10;99.90
17891;DHT22;9071;48.220;14.480;2022-07-23T09:39:10;28.50;99.90
17891;DHT22;9071;48.220;14.480;2022-07-23T09:44:16;28.70;99.90
17891;DHT22;9071;48.220;14.480;2022-07-23T09:49:20;28.80;99.90
17891;DHT22;9071;48.220;14.480;2022-07-23T09:54:28;28.40;99.90
17891;DHT22;9071;48.220;14.480;2022-07-23T09:59:34;28.20;99.90
17891;DHT22;9071;48.220;14.480;2022-07-23T10:04:37;28.40;99.90
17891;DHT22;9071;48.220;14.480;2022-07-23T10:09:40;28.70;99.90
17891;DHT22;9071;48.220;14.480;2022-07-23T10:14:44;29.00;99.90
17891;DHT22;9071;48.220;14.480;2022-07-23T10:19:46;28.90;99.90
17891;DHT22;9071;48.220;14.480;2022-07-23T10:24:56;28.90;99.90
17891;DHT22;9071;48.220;14.480;2022-07-23T10:30:03;28.70;99.90
17891;DHT22;9071;48.220;14.480;2022-07-23T10:35:13;29.30;99.90
17891;DHT22;9071;48.220;14.480;2022-07-23T10:40:22;29.60;99.90
17891;DHT22;9071;48.220;14.480;2022-07-23T10:45:31;30.30;99.90
17891;DHT22;9071;48.220;14.480;2022-07-23T10:50:33;30.70;99.90
17891;DHT22;9071;48.220;14.480;2022-07-23T10:55:41;30.80;99.90
17891;DHT22;9071;48.220;14.480;2022-07-23T11:00:45;31.00;99.90
17891;DHT22;9071;48.220;14.480;2022-07-23T11:05:47;31.30;99.90
17891;DHT22;9071;48.220;14.480;2022-07-23T11:10:52;31.60;99.90
17891;DHT22;9071;48.220;14.480;2022-07-23T11:16:25;31.80;99.90
17891;DHT22;9071;48.220;14.480;2022-07-23T11:21:43;31.50;99.90
17891;DHT22;9071;48.220;14.480;2022-07-23T11:26:48;31.30;99.90
17891;DHT22;9071;48.220;14.480;2022-07-23T11:31:53;30.90;99.90
17891;DHT22;9071;48.220;14.480;2022-07-23T11:36:55;31.10;99.90
17891;DHT22;9071;48.220;14.480;2022-07-23T11:41:58;31.10;99.90
17891;DHT22;9071;48.220;14.480;2022-07-23T11:47:04;31.10;99.90
17891;DHT22;9071;48.220;14.480;2022-07-23T11:52:07;31.10;99.90
17891;DHT22;9071;48.220;14.480;2022-07-23T11:57:10;31.60;99.90
17891;DHT22;9071;48.220;14.480;2022-07-23T12:02:13;31.60;99.90
17891;DHT22;9071;48.220;14.480;2022-07-23T12:07:29;31.50;99.90
17891;DHT22;9071;48.220;14.480;2022-07-23T12:12:38;31.70;99.90
17891;DHT22;9071;48.220;14.480;2022-07-23T12:17:43;31.50;99.90
17891;DHT22;9071;48.220;14.480;2022-07-23T12:22:47;31.50;99.90
17891;DHT22;9071;48.220;14.480;2022-07-23T12:27:59;31.60;99.90
17891;DHT22;9071;48.220;14.480;2022-07-23T12:33:04;31.70;99.90
17891;DHT22;9071;48.220;14.480;2022-07-23T12:38:08;31.80;99.90
17891;DHT22;9071;48.220;14.480;2022-07-23T12:43:18;32.10;99.90
17891;DHT22;9071;48.220;14.480;2022-07-23T12:48:24;32.00;99.90
17891;DHT22;9071;48.220;14.480;2022-07-23T12:53:28;31.50;99.90
17891;DHT22;9071;48.220;14.480;2022-07-23T12:58:40;31.60;99.90
17891;DHT22;9071;48.220;14.480;2022-07-23T13:03:55;31.50;99.90
17891;DHT22;9071;48.220;14.480;2022-07-23T13:08:58;31.90;99.90
17891;DHT22;9071;48.220;14.480;2022-07-23T13:14:00;32.30;99.90
17891;DHT22;9071;48.220;14.480;2022-07-23T13:19:04;32.50;99.90
17891;DHT22;9071;48.220;14.480;2022-07-23T13:24:07;32.00;99.90
17891;DHT22;9071;48.220;14.480;2022-07-23T13:29:09;32.20;99.90
17891;DHT22;9071;48.220;14.480;2022-07-23T13:34:13;32.60;99.90
17891;DHT22;9071;48.220;14.480;2022-07-23T13:39:15;32.40;99.90
17891;DHT22;9071;48.220;14.480;2022-07-23T13:44:17;32.30;99.90
17891;DHT22;9071;48.220;14.480;2022-07-23T13:49:21;32.50;99.90
17891;DHT22;9071;48.220;14.480;2022-07-23T13:54:23;32.40;99.90
17891;DHT22;9071;48.220;14.480;2022-07-23T13:59:25;32.30;99.90
17891;DHT22;9071;48.220;14.480;2022-07-23T14:04:29;32.10;99.90
17891;DHT22;9071;48.220;14.480;2022-07-23T14:09:31;32.40;99.90
17891;DHT22;9071;48.220;14.480;2022-07-23T14:14:34;32.70;99.90
17891;DHT22;9071;48.220;14.480;2022-07-23T14:19:38;31.80;99.90
17891;DHT22;9071;48.220;14.480;2022-07-23T14:24:40;31.40;99.90
17891;DHT22;9071;48.220;14.480;2022-07-23T14:29:43;31.40;99.90
17891;DHT22;9071;48.220;14.480;2022-07-23T14:34:47;30.90;99.90
17891;DHT22;9071;48.220;14.480;2022-07-23T14:39:49;30.70;99.90
17891;DHT22;9071;48.220;14.480;2022-07-23T14:44:51;30.70;99.90
17891;DHT22;9071;48.220;14.480;2022-07-23T14:49:54;30.90;99.90
17891;DHT22;9071;48.220;14.480;2022-07-23T14:54:56;30.90;99.90
17891;DHT22;9071;48.220;14.480;2022-07-23T14:59:59;30.60;99.90
17891;DHT22;9071;48.220;14.480;2022-07-23T15:05:02;30.30;99.90
17891;DHT22;9071;48.220;14.480;2022-07-23T15:10:06;30.10;99.90
17891;DHT22;9071;48.220;14.480;2022-07-23T15:15:08;30.10;99.90
17891;DHT22;9071;48.220;14.480;2022-07-23T15:20:12;30.30;99.90
17891;DHT22;9071;48.220;14.480;2022-07-23T15:25:15;30.50;99.90
17891;DHT22;9071;48.220;14.480;2022-07-23T15:30:18;30.20;99.90
17891;DHT22;9071;48.220;14.480;2022-07-23T15:35:21;29.90;99.90
17891;DHT22;9071;48.220;14.480;2022-07-23T15:40:24;29.80;99.90
17891;DHT22;9071;48.220;14.480;2022-07-23T15:45:26;29.60;99.90
17891;DHT22;9071;48.220;14.480;2022-07-23T15:50:29;29.30;99.90
17891;DHT22;9071;48.220;14.480;2022-07-23T15:55:32;29.10;99.90
17891;DHT22;9071;48.220;14.480;2022-07-23T16:00:34;29.10;99.90
17891;DHT22;9071;48.220;14.480;2022-07-23T16:05:38;29.00;99.90
17891;DHT22;9071;48.220;14.480;2022-07-23T16:10:40;28.70;99.90
17891;DHT22;9071;48.220;14.480;2022-07-23T16:15:42;28.50;99.90
17891;DHT22;9071;48.220;14.480;2022-07-23T16:20:46;28.40;99.90
17891;DHT22;9071;48.220;14.480;2022-07-23T16:25:49;28.30;99.90
17891;DHT22;9071;48.220;14.480;2022-07-23T16:30:53;28.10;99.90
17891;DHT22;9071;48.220;14.480;2022-07-23T16:35:58;27.90;99.90
17891;DHT22;9071;48.220;14.480;2022-07-23T16:41:00;27.70;99.90
17891;DHT22;9071;48.220;14.480;2022-07-23T16:46:03;27.50;99.90
17891;DHT22;9071;48.220;14.480;2022-07-23T16:51:07;27.30;99.90
17891;DHT22;9071;48.220;14.480;2022-07-23T16:56:09;27.10;99.90
17891;DHT22;9071;48.220;14.480;2022-07-23T17:01:12;27.10;99.90
17891;DHT22;9071;48.220;14.480;2022-07-23T17:06:15;27.00;99.90
17891;DHT22;9071;48.220;14.480;2022-07-23T17:11:17;27.00;99.90
17891;DHT22;9071;48.220;14.480;2022-07-23T17:16:19;26.90;99.90
17891;DHT22;9071;48.220;14.480;2022-07-23T17:21:23;26.90;99.90
17891;DHT22;9071;48.220;14.480;2022-07-23T17:26:25;26.80;99.90
17891;DHT22;9071;48.220;14.480;2022-07-23T17:31:27;26.70;99.90
17891;DHT22;9071;48.220;14.480;2022-07-23T17:36:31;26.60;99.90
17891;DHT22;9071;48.220;14.480;2022-07-23T17:41:33;26.60;99.90
17891;DHT22;9071;48.220;14.480;2022-07-23T17:46:35;26.50;99.90
17891;DHT22;9071;48.220;14.480;2022-07-23T17:51:38;26.50;99.90
17891;DHT22;9071;48.220;14.480;2022-07-23T17:56:41;26.50;99.90
17891;DHT22;9071;48.220;14.480;2022-07-23T18:01:43;26.40;99.90
17891;DHT22;9071;48.220;14.480;2022-07-23T18:06:46;26.30;99.90
17891;DHT22;9071;48.220;14.480;2022-07-23T18:11:49;26.20;99.90
17891;DHT22;9071;48.220;14.480;2022-07-23T18:16:51;26.10;99.90
17891;DHT22;9071;48.220;14.480;2022-07-23T18:21:54;26.00;99.90
17891;DHT22;9071;48.220;14.480;2022-07-23T18:26:56;25.80;99.90
17891;DHT22;9071;48.220;14.480;2022-07-23T18:31:59;25.60;99.90
17891;DHT22;9071;48.220;14.480;2022-07-23T18:37:04;25.40;99.90
17891;DHT22;9071;48.220;14.480;2022-07-23T18:42:06;25.20;99.90
17891;DHT22;9071;48.220;14.480;2022-07-23T18:47:09;25.00;99.90
17891;DHT22;9071;48.220;14.480;2022-07-23T18:52:13;24.80;99.90
17891;DHT22;9071;48.220;14.480;2022-07-23T18:57:16;24.60;99.90
17891;DHT22;9071;48.220;14.480;2022-07-23T19:02:19;24.40;99.90
17891;DHT22;9071;48.220;14.480;2022-07-23T19:07:22;24.30;99.90
17891;DHT22;9071;48.220;14.480;2022-07-23T19:12:24;24.10;99.90
17891;DHT22;9071;48.220;14.480;2022-07-23T19:17:27;24.00;99.90
17891;DHT22;9071;48.220;14.480;2022-07-23T19:22:30;23.90;99.90
17891;DHT22;9071;48.220;14.480;2022-07-23T19:27:32;23.80;99.90
17891;DHT22;9071;48.220;14.480;2022-07-23T19:32:35;23.70;99.90
17891;DHT22;9071;48.220;14.480;2022-07-23T19:37:38;23.60;99.90
17891;DHT22;9071;48.220;14.480;2022-07-23T19:42:40;23.50;99.90
17891;DHT22;9071;48.220;14.480;2022-07-23T19:47:43;23.40;99.90
17891;DHT22;9071;48.220;14.480;2022-07-23T19:52:47;23.30;99.90
17891;DHT22;9071;48.220;14.480;2022-07-23T19:57:49;23.30;99.90
17891;DHT22;9071;48.220;14.480;2022-07-23T20:02:51;23.20;99.90
17891;DHT22;9071;48.220;14.480;2022-07-23T20:07:55;23.10;99.90
17891;DHT22;9071;48.220;14.480;2022-07-23T20:12:57;23.00;99.90
17891;DHT22;9071;48.220;14.480;2022-07-23T20:18:00;22.90;99.90
17891;DHT22;9071;48.220;14.480;2022-07-23T20:23:03;22.90;99.90
17891;DHT22;9071;48.220;14.480;2022-07-23T20:28:06;22.80;99.90
17891;DHT22;9071;48.220;14.480;2022-07-23T20:33:10;22.70;99.90
17891;DHT22;9071;48.220;14.480;2022-07-23T20:38:14;22.70;99.90
17891;DHT22;9071;48.220;14.480;2022-07-23T20:43:16;22.60;99.90
17891;DHT22;9071;48.220;14.480;2022-07-23T20:48:18;22.50;99.90
17891;DHT22;9071;48.220;14.480;2022-07-23T20:53:22;22.40;99.90
17891;DHT22;9071;48.220;14.480;2022-07-23T20:58:24;22.30;99.90
17891;DHT22;9071;48.220;14.480;2022-07-23T21:03:26;22.30;99.90
17891;DHT22;9071;48.220;14.480;2022-07-23T21:08:29;22.40;99.90
17891;DHT22;9071;48.220;14.480;2022-07-23T21:13:31;22.40;99.90
17891;DHT22;9071;48.220;14.480;2022-07-23T21:18:33;22.50;99.90
17891;DHT22;9071;48.220;14.480;2022-07-23T21:23:38;22.40;99.90
17891;DHT22;9071;48.220;14.480;2022-07-23T21:28:41;22.40;99.90
17891;DHT22;9071;48.220;14.480;2022-07-23T21:33:43;22.40;99.90
17891;DHT22;9071;48.220;14.480;2022-07-23T21:38:47;22.40;99.90
17891;DHT22;9071;48.220;14.480;2022-07-23T21:43:49;22.40;99.90
17891;DHT22;9071;48.220;14.480;2022-07-23T21:48:51;22.40;99.90
17891;DHT22;9071;48.220;14.480;2022-07-23T21:53:54;22.40;99.90
17891;DHT22;9071;48.220;14.480;2022-07-23T21:58:56;22.30;99.90
17891;DHT22;9071;48.220;14.480;2022-07-23T22:03:59;22.30;99.90
17891;DHT22;9071;48.220;14.480;2022-07-23T22:09:02;22.30;99.90
17891;DHT22;9071;48.220;14.480;2022-07-23T22:14:05;22.20;99.90
17891;DHT22;9071;48.220;14.480;2022-07-23T22:19:07;22.20;99.90
17891;DHT22;9071;48.220;14.480;2022-07-23T22:24:11;22.10;99.90
17891;DHT22;9071;48.220;14.480;2022-07-23T22:29:13;22.00;99.90
17891;DHT22;9071;48.220;14.480;2022-07-23T22:34:15;22.00;99.90
17891;DHT22;9071;48.220;14.480;2022-07-23T22:39:18;21.80;99.90
17891;DHT22;9071;48.220;14.480;2022-07-23T22:44:20;21.70;99.90
17891;DHT22;9071;48.220;14.480;2022-07-23T22:49:23;21.60;99.90
17891;DHT22;9071;48.220;14.480;2022-07-23T22:54:26;21.50;99.90
17891;DHT22;9071;48.220;14.480;2022-07-23T22:59:29;21.50;99.90
17891;DHT22;9071;48.220;14.480;2022-07-23T23:04:31;21.40;99.90
17891;DHT22;9071;48.220;14.480;2022-07-23T23:09:35;21.20;99.90
17891;DHT22;9071;48.220;14.480;2022-07-23T23:14:37;21.00;99.90
17891;DHT22;9071;48.220;14.480;2022-07-23T23:19:39;20.90;99.90
17891;DHT22;9071;48.220;14.480;2022-07-23T23:24:42;20.70;99.90
17891;DHT22;9071;48.220;14.480;2022-07-23T23:29:44;20.60;99.90
17891;DHT22;9071;48.220;14.480;2022-07-23T23:34:46;20.50;99.90
17891;DHT22;9071;48.220;14.480;2022-07-23T23:39:50;20.40;99.90
17891;DHT22;9071;48.220;14.480;2022-07-23T23:44:52;20.20;99.90
17891;DHT22;9071;48.220;14.480;2022-07-23T23:49:54;20.20;99.90
17891;DHT22;9071;48.220;14.480;2022-07-23T23:54:58;20.20;99.90
